sensor_id;sensor_type;location;lat;lon;timestamp;temperature;humidity
76567;DHT22;65428;53.194;6.132;2022-12-07T00:01:17;4.60;94.30
76567;DHT22;65428;53.194;6.132;2022-12-07T00:03:45;4.60;94.00
76567;DHT22;65428;53.194;6.132;2022-12-07T00:06:12;4.60;93.90
76567;DHT22;65428;53.194;6.132;2022-12-07T00:08:38;4.70;93.90
76567;DHT22;65428;53.194;6.132;2022-12-07T00:11:12;4.80;93.90
76567;DHT22;65428;53.194;6.132;2022-12-07T00:13:39;4.80;93.70
76567;DHT22;65428;53.194;6.132;2022-12-07T00:18:32;4.80;93.80
76567;DHT22;65428;53.194;6.132;2022-12-07T00:21:26;4.80;93.80
76567;DHT22;65428;53.194;6.132;2022-12-07T00:23:52;4.80;94.00
76567;DHT22;65428;53.194;6.132;2022-12-07T00:26:27;4.70;94.00
76567;DHT22;65428;53.194;6.132;2022-12-07T00:29:00;4.70;94.00
76567;DHT22;65428;53.194;6.132;2022-12-07T00:31:29;4.70;94.30
76567;DHT22;65428;53.194;6.132;2022-12-07T00:33:57;4.70;94.40
76567;DHT22;65428;53.194;6.132;2022-12-07T00:36:24;4.80;94.40
76567;DHT22;65428;53.194;6.132;2022-12-07T00:38:50;4.70;94.50
76567;DHT22;65428;53.194;6.132;2022-12-07T00:41:21;4.60;94.40
76567;DHT22;65428;53.194;6.132;2022-12-07T00:43:48;4.60;94.40
76567;DHT22;65428;53.194;6.132;2022-12-07T00:46:14;4.50;94.40
76567;DHT22;65428;53.194;6.132;2022-12-07T00:48:40;4.50;94.60
76567;DHT22;65428;53.194;6.132;2022-12-07T00:51:07;4.50;94.60
76567;DHT22;65428;53.194;6.132;2022-12-07T00:53:36;4.40;94.60
76567;DHT22;65428;53.194;6.132;2022-12-07T00:56:11;4.40;94.70
76567;DHT22;65428;53.194;6.132;2022-12-07T00:58:37;4.40;94.60
76567;DHT22;65428;53.194;6.132;2022-12-07T01:01:04;4.40;94.70
76567;DHT22;65428;53.194;6.132;2022-12-07T01:03:30;4.40;94.80
76567;DHT22;65428;53.194;6.132;2022-12-07T01:05:56;4.50;94.80
76567;DHT22;65428;53.194;6.132;2022-12-07T01:08:23;4.50;94.70
76567;DHT22;65428;53.194;6.132;2022-12-07T01:10:49;4.50;94.60
76567;DHT22;65428;53.194;6.132;2022-12-07T01:13:15;4.50;94.60
76567;DHT22;65428;53.194;6.132;2022-12-07T01:15:42;4.70;94.40
76567;DHT22;65428;53.194;6.132;2022-12-07T01:18:08;4.70;94.60
76567;DHT22;65428;53.194;6.132;2022-12-07T01:20:34;4.60;94.50
76567;DHT22;65428;53.194;6.132;2022-12-07T01:23:00;4.60;94.30
76567;DHT22;65428;53.194;6.132;2022-12-07T01:25:25;4.60;94.20
76567;DHT22;65428;53.194;6.132;2022-12-07T01:27:51;4.70;94.40
76567;DHT22;65428;53.194;6.132;2022-12-07T01:30:17;4.60;94.60
76567;DHT22;65428;53.194;6.132;2022-12-07T01:32:42;4.60;94.80
76567;DHT22;65428;53.194;6.132;2022-12-07T01:35:08;4.50;94.70
76567;DHT22;65428;53.194;6.132;2022-12-07T01:37:38;4.50;94.70
76567;DHT22;65428;53.194;6.132;2022-12-07T01:40:06;4.40;94.70
76567;DHT22;65428;53.194;6.132;2022-12-07T01:42:32;4.40;94.80
76567;DHT22;65428;53.194;6.132;2022-12-07T01:47:53;4.40;94.60
76567;DHT22;65428;53.194;6.132;2022-12-07T01:50:21;4.30;94.40
76567;DHT22;65428;53.194;6.132;2022-12-07T01:52:50;4.40;94.60
76567;DHT22;65428;53.194;6.132;2022-12-07T01:55:19;4.20;94.60
76567;DHT22;65428;53.194;6.132;2022-12-07T01:57:48;4.10;94.60
76567;DHT22;65428;53.194;6.132;2022-12-07T02:00:15;4.10;94.60
76567;DHT22;65428;53.194;6.132;2022-12-07T02:02:51;4.20;94.80
76567;DHT22;65428;53.194;6.132;2022-12-07T02:05:18;4.10;94.70
76567;DHT22;65428;53.194;6.132;2022-12-07T02:07:44;4.00;94.50
76567;DHT22;65428;53.194;6.132;2022-12-07T02:10:17;4.00;94.40
76567;DHT22;65428;53.194;6.132;2022-12-07T02:12:45;3.90;94.60
76567;DHT22;65428;53.194;6.132;2022-12-07T02:15:12;3.80;94.80
76567;DHT22;65428;53.194;6.132;2022-12-07T02:18:02;3.70;94.30
76567;DHT22;65428;53.194;6.132;2022-12-07T02:21:04;3.70;94.40
76567;DHT22;65428;53.194;6.132;2022-12-07T02:23:56;3.50;94.30
76567;DHT22;65428;53.194;6.132;2022-12-07T02:26:57;3.50;94.40
76567;DHT22;65428;53.194;6.132;2022-12-07T02:29:32;3.40;94.60
76567;DHT22;65428;53.194;6.132;2022-12-07T02:34:55;3.50;95.20
76567;DHT22;65428;53.194;6.132;2022-12-07T02:40:08;3.40;95.10
76567;DHT22;65428;53.194;6.132;2022-12-07T02:42:40;3.50;95.10
76567;DHT22;65428;53.194;6.132;2022-12-07T02:45:09;3.80;95.20
76567;DHT22;65428;53.194;6.132;2022-12-07T02:47:36;3.50;95.30
76567;DHT22;65428;53.194;6.132;2022-12-07T02:50:04;3.60;95.50
76567;DHT22;65428;53.194;6.132;2022-12-07T02:52:30;3.60;95.50
76567;DHT22;65428;53.194;6.132;2022-12-07T02:54:56;3.80;95.50
76567;DHT22;65428;53.194;6.132;2022-12-07T03:00:18;3.60;95.20
76567;DHT22;65428;53.194;6.132;2022-12-07T03:08:13;3.90;95.20
76567;DHT22;65428;53.194;6.132;2022-12-07T03:13:54;3.90;95.00
76567;DHT22;65428;53.194;6.132;2022-12-07T03:16:27;3.90;94.90
76567;DHT22;65428;53.194;6.132;2022-12-07T03:19:03;4.10;94.90
76567;DHT22;65428;53.194;6.132;2022-12-07T03:21:36;4.00;94.80
76567;DHT22;65428;53.194;6.132;2022-12-07T03:24:16;4.00;94.70
76567;DHT22;65428;53.194;6.132;2022-12-07T03:26:47;3.90;94.80
76567;DHT22;65428;53.194;6.132;2022-12-07T03:29:22;3.90;94.80
76567;DHT22;65428;53.194;6.132;2022-12-07T03:32:11;3.90;95.00
76567;DHT22;65428;53.194;6.132;2022-12-07T03:34:49;3.90;95.00
76567;DHT22;65428;53.194;6.132;2022-12-07T03:37:43;4.00;95.00
76567;DHT22;65428;53.194;6.132;2022-12-07T03:40:17;4.00;94.70
76567;DHT22;65428;53.194;6.132;2022-12-07T03:42:43;4.10;94.80
76567;DHT22;65428;53.194;6.132;2022-12-07T03:45:10;4.10;94.80
76567;DHT22;65428;53.194;6.132;2022-12-07T03:48:22;4.20;94.90
76567;DHT22;65428;53.194;6.132;2022-12-07T03:51:17;4.20;94.80
76567;DHT22;65428;53.194;6.132;2022-12-07T03:53:44;4.20;94.50
76567;DHT22;65428;53.194;6.132;2022-12-07T03:56:12;4.20;94.30
76567;DHT22;65428;53.194;6.132;2022-12-07T03:58:38;4.40;94.50
76567;DHT22;65428;53.194;6.132;2022-12-07T04:01:05;4.40;94.40
76567;DHT22;65428;53.194;6.132;2022-12-07T04:03:30;4.40;94.30
76567;DHT22;65428;53.194;6.132;2022-12-07T04:05:56;4.50;94.30
76567;DHT22;65428;53.194;6.132;2022-12-07T04:08:23;4.50;94.10
76567;DHT22;65428;53.194;6.132;2022-12-07T04:10:49;4.40;94.10
76567;DHT22;65428;53.194;6.132;2022-12-07T04:13:15;4.40;94.50
76567;DHT22;65428;53.194;6.132;2022-12-07T04:15:40;4.40;94.20
76567;DHT22;65428;53.194;6.132;2022-12-07T04:18:06;4.40;94.40
76567;DHT22;65428;53.194;6.132;2022-12-07T04:20:31;4.20;94.50
76567;DHT22;65428;53.194;6.132;2022-12-07T04:22:57;4.10;94.40
76567;DHT22;65428;53.194;6.132;2022-12-07T04:25:23;4.30;94.60
76567;DHT22;65428;53.194;6.132;2022-12-07T04:27:48;4.00;94.60
76567;DHT22;65428;53.194;6.132;2022-12-07T04:30:14;4.00;94.60
76567;DHT22;65428;53.194;6.132;2022-12-07T04:32:40;3.80;94.40
76567;DHT22;65428;53.194;6.132;2022-12-07T04:35:06;3.80;94.50
76567;DHT22;65428;53.194;6.132;2022-12-07T04:37:32;3.70;94.50
76567;DHT22;65428;53.194;6.132;2022-12-07T04:39:57;3.60;94.50
76567;DHT22;65428;53.194;6.132;2022-12-07T04:42:23;3.60;94.60
76567;DHT22;65428;53.194;6.132;2022-12-07T04:44:49;3.50;94.80
76567;DHT22;65428;53.194;6.132;2022-12-07T04:47:14;3.50;94.80
76567;DHT22;65428;53.194;6.132;2022-12-07T04:49:40;3.50;94.80
76567;DHT22;65428;53.194;6.132;2022-12-07T04:52:06;3.40;94.90
76567;DHT22;65428;53.194;6.132;2022-12-07T04:54:31;3.40;95.00
76567;DHT22;65428;53.194;6.132;2022-12-07T04:56:57;3.30;94.90
76567;DHT22;65428;53.194;6.132;2022-12-07T04:59:23;3.30;94.70
76567;DHT22;65428;53.194;6.132;2022-12-07T05:01:48;3.20;94.60
76567;DHT22;65428;53.194;6.132;2022-12-07T05:04:14;3.20;94.90
76567;DHT22;65428;53.194;6.132;2022-12-07T05:06:41;3.40;95.00
76567;DHT22;65428;53.194;6.132;2022-12-07T05:09:07;3.10;94.90
76567;DHT22;65428;53.194;6.132;2022-12-07T05:11:33;3.10;95.00
76567;DHT22;65428;53.194;6.132;2022-12-07T05:14:24;3.10;95.10
76567;DHT22;65428;53.194;6.132;2022-12-07T05:16:50;3.10;95.10
76567;DHT22;65428;53.194;6.132;2022-12-07T05:19:17;3.00;95.00
76567;DHT22;65428;53.194;6.132;2022-12-07T05:21:43;3.00;95.10
76567;DHT22;65428;53.194;6.132;2022-12-07T05:24:11;3.10;95.20
76567;DHT22;65428;53.194;6.132;2022-12-07T05:26:37;3.10;95.40
76567;DHT22;65428;53.194;6.132;2022-12-07T05:29:03;3.20;95.60
76567;DHT22;65428;53.194;6.132;2022-12-07T05:31:29;3.30;95.30
76567;DHT22;65428;53.194;6.132;2022-12-07T05:33:55;3.40;95.20
76567;DHT22;65428;53.194;6.132;2022-12-07T05:36:22;3.50;95.10
76567;DHT22;65428;53.194;6.132;2022-12-07T05:38:48;3.60;95.00
76567;DHT22;65428;53.194;6.132;2022-12-07T05:41:16;3.70;94.90
76567;DHT22;65428;53.194;6.132;2022-12-07T05:44:01;3.70;94.90
76567;DHT22;65428;53.194;6.132;2022-12-07T05:46:27;3.70;95.00
76567;DHT22;65428;53.194;6.132;2022-12-07T05:48:53;3.70;95.00
76567;DHT22;65428;53.194;6.132;2022-12-07T05:51:18;3.60;95.00
76567;DHT22;65428;53.194;6.132;2022-12-07T05:53:44;3.60;94.80
76567;DHT22;65428;53.194;6.132;2022-12-07T05:56:10;3.80;94.90
76567;DHT22;65428;53.194;6.132;2022-12-07T05:58:35;3.40;94.70
76567;DHT22;65428;53.194;6.132;2022-12-07T06:01:20;3.40;94.50
76567;DHT22;65428;53.194;6.132;2022-12-07T06:03:45;3.30;94.50
76567;DHT22;65428;53.194;6.132;2022-12-07T06:06:11;3.20;94.60
76567;DHT22;65428;53.194;6.132;2022-12-07T06:08:36;3.20;94.70
76567;DHT22;65428;53.194;6.132;2022-12-07T06:11:02;3.20;94.90
76567;DHT22;65428;53.194;6.132;2022-12-07T06:13:46;3.30;95.20
76567;DHT22;65428;53.194;6.132;2022-12-07T06:16:12;3.30;95.40
76567;DHT22;65428;53.194;6.132;2022-12-07T06:18:38;3.40;95.60
76567;DHT22;65428;53.194;6.132;2022-12-07T06:21:03;3.30;95.40
76567;DHT22;65428;53.194;6.132;2022-12-07T06:23:29;3.40;95.60
76567;DHT22;65428;53.194;6.132;2022-12-07T06:25:55;3.40;95.50
76567;DHT22;65428;53.194;6.132;2022-12-07T06:28:20;3.40;95.50
76567;DHT22;65428;53.194;6.132;2022-12-07T06:30:46;3.30;95.20
76567;DHT22;65428;53.194;6.132;2022-12-07T06:33:11;3.30;95.10
76567;DHT22;65428;53.194;6.132;2022-12-07T06:35:37;3.20;94.90
76567;DHT22;65428;53.194;6.132;2022-12-07T06:38:03;3.10;94.70
76567;DHT22;65428;53.194;6.132;2022-12-07T06:40:28;3.00;94.80
76567;DHT22;65428;53.194;6.132;2022-12-07T06:42:54;3.00;94.70
76567;DHT22;65428;53.194;6.132;2022-12-07T06:45:20;3.00;94.90
76567;DHT22;65428;53.194;6.132;2022-12-07T06:47:45;2.90;94.90
76567;DHT22;65428;53.194;6.132;2022-12-07T06:50:11;2.90;94.70
76567;DHT22;65428;53.194;6.132;2022-12-07T06:52:36;2.90;95.20
76567;DHT22;65428;53.194;6.132;2022-12-07T06:55:02;3.00;95.50
76567;DHT22;65428;53.194;6.132;2022-12-07T06:57:28;3.20;95.80
76567;DHT22;65428;53.194;6.132;2022-12-07T06:59:53;3.20;95.90
76567;DHT22;65428;53.194;6.132;2022-12-07T07:02:19;3.30;95.70
76567;DHT22;65428;53.194;6.132;2022-12-07T07:04:44;3.30;95.40
76567;DHT22;65428;53.194;6.132;2022-12-07T07:07:10;3.30;95.40
76567;DHT22;65428;53.194;6.132;2022-12-07T07:09:36;3.30;95.60
76567;DHT22;65428;53.194;6.132;2022-12-07T07:12:01;3.30;95.60
76567;DHT22;65428;53.194;6.132;2022-12-07T07:14:27;3.20;95.50
76567;DHT22;65428;53.194;6.132;2022-12-07T07:16:53;3.20;95.30
76567;DHT22;65428;53.194;6.132;2022-12-07T07:19:18;3.20;95.10
76567;DHT22;65428;53.194;6.132;2022-12-07T07:21:44;3.10;95.00
76567;DHT22;65428;53.194;6.132;2022-12-07T07:24:12;3.20;95.20
76567;DHT22;65428;53.194;6.132;2022-12-07T07:26:38;2.90;94.90
76567;DHT22;65428;53.194;6.132;2022-12-07T07:29:03;2.90;94.90
76567;DHT22;65428;53.194;6.132;2022-12-07T07:31:29;2.80;95.00
76567;DHT22;65428;53.194;6.132;2022-12-07T07:33:54;2.80;95.00
76567;DHT22;65428;53.194;6.132;2022-12-07T07:36:20;3.00;95.10
76567;DHT22;65428;53.194;6.132;2022-12-07T07:38:46;2.70;95.00
76567;DHT22;65428;53.194;6.132;2022-12-07T07:41:11;2.70;95.20
76567;DHT22;65428;53.194;6.132;2022-12-07T07:43:37;2.70;95.40
76567;DHT22;65428;53.194;6.132;2022-12-07T07:46:03;2.70;95.20
76567;DHT22;65428;53.194;6.132;2022-12-07T07:48:28;2.70;95.60
76567;DHT22;65428;53.194;6.132;2022-12-07T07:50:54;2.90;95.90
76567;DHT22;65428;53.194;6.132;2022-12-07T07:53:20;2.90;95.90
76567;DHT22;65428;53.194;6.132;2022-12-07T07:55:54;3.00;96.00
76567;DHT22;65428;53.194;6.132;2022-12-07T07:58:20;3.10;95.90
76567;DHT22;65428;53.194;6.132;2022-12-07T08:00:46;3.20;95.80
76567;DHT22;65428;53.194;6.132;2022-12-07T08:03:12;3.20;95.60
76567;DHT22;65428;53.194;6.132;2022-12-07T08:05:38;3.10;95.50
76567;DHT22;65428;53.194;6.132;2022-12-07T08:08:04;3.10;95.30
76567;DHT22;65428;53.194;6.132;2022-12-07T08:10:30;3.00;95.20
76567;DHT22;65428;53.194;6.132;2022-12-07T08:12:57;3.00;95.10
76567;DHT22;65428;53.194;6.132;2022-12-07T08:15:46;3.00;95.30
76567;DHT22;65428;53.194;6.132;2022-12-07T08:18:13;2.90;95.20
76567;DHT22;65428;53.194;6.132;2022-12-07T08:20:39;2.90;95.10
76567;DHT22;65428;53.194;6.132;2022-12-07T08:23:06;2.90;95.10
76567;DHT22;65428;53.194;6.132;2022-12-07T08:25:32;2.90;95.10
76567;DHT22;65428;53.194;6.132;2022-12-07T08:27:58;2.90;95.20
76567;DHT22;65428;53.194;6.132;2022-12-07T08:30:26;2.90;95.20
76567;DHT22;65428;53.194;6.132;2022-12-07T08:32:52;3.00;95.50
76567;DHT22;65428;53.194;6.132;2022-12-07T08:35:18;3.30;95.40
76567;DHT22;65428;53.194;6.132;2022-12-07T08:37:43;3.30;95.20
76567;DHT22;65428;53.194;6.132;2022-12-07T08:40:11;3.30;95.20
76567;DHT22;65428;53.194;6.132;2022-12-07T08:42:43;3.40;95.10
76567;DHT22;65428;53.194;6.132;2022-12-07T08:45:12;3.50;95.40
76567;DHT22;65428;53.194;6.132;2022-12-07T08:48:01;3.70;95.40
76567;DHT22;65428;53.194;6.132;2022-12-07T08:50:27;3.80;94.70
76567;DHT22;65428;53.194;6.132;2022-12-07T08:52:55;3.90;94.40
76567;DHT22;65428;53.194;6.132;2022-12-07T08:55:22;4.00;93.80
76567;DHT22;65428;53.194;6.132;2022-12-07T08:57:48;4.20;93.40
76567;DHT22;65428;53.194;6.132;2022-12-07T09:00:15;4.20;93.60
76567;DHT22;65428;53.194;6.132;2022-12-07T09:02:43;4.20;93.50
76567;DHT22;65428;53.194;6.132;2022-12-07T09:05:09;4.20;93.70
76567;DHT22;65428;53.194;6.132;2022-12-07T09:07:35;4.20;94.00
76567;DHT22;65428;53.194;6.132;2022-12-07T09:10:03;4.20;94.40
76567;DHT22;65428;53.194;6.132;2022-12-07T09:12:29;4.20;94.30
76567;DHT22;65428;53.194;6.132;2022-12-07T09:14:55;4.20;94.20
76567;DHT22;65428;53.194;6.132;2022-12-07T09:17:21;4.20;94.20
76567;DHT22;65428;53.194;6.132;2022-12-07T09:19:46;4.30;94.40
76567;DHT22;65428;53.194;6.132;2022-12-07T09:22:12;4.50;94.50
76567;DHT22;65428;53.194;6.132;2022-12-07T09:24:38;4.30;94.40
76567;DHT22;65428;53.194;6.132;2022-12-07T09:27:04;4.40;94.80
76567;DHT22;65428;53.194;6.132;2022-12-07T09:29:29;4.20;94.80
76567;DHT22;65428;53.194;6.132;2022-12-07T09:31:55;4.20;94.50
76567;DHT22;65428;53.194;6.132;2022-12-07T09:34:21;4.20;94.60
76567;DHT22;65428;53.194;6.132;2022-12-07T09:36:47;4.30;94.50
76567;DHT22;65428;53.194;6.132;2022-12-07T09:39:12;4.50;94.80
76567;DHT22;65428;53.194;6.132;2022-12-07T09:41:43;4.90;94.80
76567;DHT22;65428;53.194;6.132;2022-12-07T09:44:16;5.30;94.50
76567;DHT22;65428;53.194;6.132;2022-12-07T09:46:43;5.60;93.40
76567;DHT22;65428;53.194;6.132;2022-12-07T09:49:14;5.70;93.10
76567;DHT22;65428;53.194;6.132;2022-12-07T09:51:41;5.70;92.70
76567;DHT22;65428;53.194;6.132;2022-12-07T09:54:09;5.50;92.60
76567;DHT22;65428;53.194;6.132;2022-12-07T09:56:37;5.20;92.80
76567;DHT22;65428;53.194;6.132;2022-12-07T09:59:03;5.20;92.70
76567;DHT22;65428;53.194;6.132;2022-12-07T10:01:31;5.20;93.30
76567;DHT22;65428;53.194;6.132;2022-12-07T10:04:14;5.20;93.40
76567;DHT22;65428;53.194;6.132;2022-12-07T10:06:41;5.20;93.60
76567;DHT22;65428;53.194;6.132;2022-12-07T10:09:12;5.20;93.60
76567;DHT22;65428;53.194;6.132;2022-12-07T10:11:57;5.30;93.50
76567;DHT22;65428;53.194;6.132;2022-12-07T10:14:23;5.00;93.50
76567;DHT22;65428;53.194;6.132;2022-12-07T10:16:48;5.40;93.70
76567;DHT22;65428;53.194;6.132;2022-12-07T10:19:25;5.40;93.80
76567;DHT22;65428;53.194;6.132;2022-12-07T10:22:13;5.30;93.60
76567;DHT22;65428;53.194;6.132;2022-12-07T10:24:43;5.60;93.60
76567;DHT22;65428;53.194;6.132;2022-12-07T10:27:34;5.60;93.40
76567;DHT22;65428;53.194;6.132;2022-12-07T10:30:03;5.70;93.30
76567;DHT22;65428;53.194;6.132;2022-12-07T10:32:34;5.90;92.40
76567;DHT22;65428;53.194;6.132;2022-12-07T10:37:48;6.20;90.90
76567;DHT22;65428;53.194;6.132;2022-12-07T10:40:30;6.40;90.60
76567;DHT22;65428;53.194;6.132;2022-12-07T10:43:17;6.50;88.50
76567;DHT22;65428;53.194;6.132;2022-12-07T10:48:20;6.70;90.40
76567;DHT22;65428;53.194;6.132;2022-12-07T10:50:55;6.30;89.90
76567;DHT22;65428;53.194;6.132;2022-12-07T11:01:49;6.10;90.10
76567;DHT22;65428;53.194;6.132;2022-12-07T11:04:41;6.10;90.60
76567;DHT22;65428;53.194;6.132;2022-12-07T11:07:21;6.10;90.40
76567;DHT22;65428;53.194;6.132;2022-12-07T11:18:10;6.60;91.20
76567;DHT22;65428;53.194;6.132;2022-12-07T11:24:07;7.00;88.00
76567;DHT22;65428;53.194;6.132;2022-12-07T11:26:58;7.10;87.30
76567;DHT22;65428;53.194;6.132;2022-12-07T11:29:46;7.10;85.90
76567;DHT22;65428;53.194;6.132;2022-12-07T11:38:11;7.00;84.90
76567;DHT22;65428;53.194;6.132;2022-12-07T11:40:38;7.00;86.50
76567;DHT22;65428;53.194;6.132;2022-12-07T11:43:27;7.00;86.90
76567;DHT22;65428;53.194;6.132;2022-12-07T11:46:12;7.00;88.60
76567;DHT22;65428;53.194;6.132;2022-12-07T11:48:43;7.10;88.00
76567;DHT22;65428;53.194;6.132;2022-12-07T11:51:12;7.20;86.40
76567;DHT22;65428;53.194;6.132;2022-12-07T11:53:49;7.30;87.50
76567;DHT22;65428;53.194;6.132;2022-12-07T11:56:21;7.30;86.90
76567;DHT22;65428;53.194;6.132;2022-12-07T12:04:01;7.30;86.70
76567;DHT22;65428;53.194;6.132;2022-12-07T12:06:29;7.30;87.00
76567;DHT22;65428;53.194;6.132;2022-12-07T12:09:11;7.20;84.50
76567;DHT22;65428;53.194;6.132;2022-12-07T12:15:06;6.50;85.70
76567;DHT22;65428;53.194;6.132;2022-12-07T12:23:20;4.90;91.80
76567;DHT22;65428;53.194;6.132;2022-12-07T12:25:52;4.50;92.10
76567;DHT22;65428;53.194;6.132;2022-12-07T12:31:11;4.40;93.40
76567;DHT22;65428;53.194;6.132;2022-12-07T12:33:42;4.40;94.30
76567;DHT22;65428;53.194;6.132;2022-12-07T12:51:52;5.10;94.70
76567;DHT22;65428;53.194;6.132;2022-12-07T12:54:28;5.20;93.80
76567;DHT22;65428;53.194;6.132;2022-12-07T12:59:35;5.20;93.80
76567;DHT22;65428;53.194;6.132;2022-12-07T13:31:37;5.20;93.90
76567;DHT22;65428;53.194;6.132;2022-12-07T13:34:26;5.10;93.60
76567;DHT22;65428;53.194;6.132;2022-12-07T13:36:51;5.30;93.80
76567;DHT22;65428;53.194;6.132;2022-12-07T13:39:22;5.20;93.80
76567;DHT22;65428;53.194;6.132;2022-12-07T13:41:53;5.10;93.50
76567;DHT22;65428;53.194;6.132;2022-12-07T13:44:21;5.10;93.90
76567;DHT22;65428;53.194;6.132;2022-12-07T13:47:01;5.00;93.90
76567;DHT22;65428;53.194;6.132;2022-12-07T13:49:32;5.00;93.90
76567;DHT22;65428;53.194;6.132;2022-12-07T13:52:22;5.00;94.10
76567;DHT22;65428;53.194;6.132;2022-12-07T13:54:58;5.10;94.10
76567;DHT22;65428;53.194;6.132;2022-12-07T13:57:26;5.10;93.80
76567;DHT22;65428;53.194;6.132;2022-12-07T13:59:53;5.00;93.30
76567;DHT22;65428;53.194;6.132;2022-12-07T14:02:20;5.00;93.20
76567;DHT22;65428;53.194;6.132;2022-12-07T14:04:47;5.00;93.30
76567;DHT22;65428;53.194;6.132;2022-12-07T14:07:25;5.30;93.10
76567;DHT22;65428;53.194;6.132;2022-12-07T14:10:00;5.00;92.80
76567;DHT22;65428;53.194;6.132;2022-12-07T14:12:27;5.00;93.10
76567;DHT22;65428;53.194;6.132;2022-12-07T14:14:53;5.00;92.90
76567;DHT22;65428;53.194;6.132;2022-12-07T14:17:22;5.00;92.80
76567;DHT22;65428;53.194;6.132;2022-12-07T14:20:02;5.00;92.80
76567;DHT22;65428;53.194;6.132;2022-12-07T14:22:35;4.90;92.20
76567;DHT22;65428;53.194;6.132;2022-12-07T14:25:27;4.90;92.20
76567;DHT22;65428;53.194;6.132;2022-12-07T14:27:58;4.90;92.20
76567;DHT22;65428;53.194;6.132;2022-12-07T14:30:27;4.80;92.20
76567;DHT22;65428;53.194;6.132;2022-12-07T14:32:57;4.70;92.60
76567;DHT22;65428;53.194;6.132;2022-12-07T14:35:24;4.70;93.00
76567;DHT22;65428;53.194;6.132;2022-12-07T14:37:50;4.70;93.40
76567;DHT22;65428;53.194;6.132;2022-12-07T14:40:29;4.60;93.50
76567;DHT22;65428;53.194;6.132;2022-12-07T14:43:04;4.50;93.20
76567;DHT22;65428;53.194;6.132;2022-12-07T14:45:30;4.50;93.40
76567;DHT22;65428;53.194;6.132;2022-12-07T14:47:56;4.50;93.50
76567;DHT22;65428;53.194;6.132;2022-12-07T14:50:22;4.40;93.50
76567;DHT22;65428;53.194;6.132;2022-12-07T14:53:00;4.40;93.80
76567;DHT22;65428;53.194;6.132;2022-12-07T14:55:31;4.30;93.90
76567;DHT22;65428;53.194;6.132;2022-12-07T14:57:57;4.30;94.00
76567;DHT22;65428;53.194;6.132;2022-12-07T15:00:25;4.30;94.00
76567;DHT22;65428;53.194;6.132;2022-12-07T15:02:52;4.30;93.90
76567;DHT22;65428;53.194;6.132;2022-12-07T15:05:18;4.30;94.10
76567;DHT22;65428;53.194;6.132;2022-12-07T15:07:45;4.30;94.40
76567;DHT22;65428;53.194;6.132;2022-12-07T15:10:22;4.30;94.40
76567;DHT22;65428;53.194;6.132;2022-12-07T15:12:48;4.40;94.40
76567;DHT22;65428;53.194;6.132;2022-12-07T15:15:15;4.40;94.50
76567;DHT22;65428;53.194;6.132;2022-12-07T15:17:41;4.20;94.40
76567;DHT22;65428;53.194;6.132;2022-12-07T15:20:12;4.20;94.20
76567;DHT22;65428;53.194;6.132;2022-12-07T15:22:38;4.20;94.30
76567;DHT22;65428;53.194;6.132;2022-12-07T15:25:04;4.20;94.40
76567;DHT22;65428;53.194;6.132;2022-12-07T15:27:31;4.20;94.40
76567;DHT22;65428;53.194;6.132;2022-12-07T15:29:57;4.20;94.20
76567;DHT22;65428;53.194;6.132;2022-12-07T15:32:22;4.20;94.30
76567;DHT22;65428;53.194;6.132;2022-12-07T15:34:48;4.30;94.40
76567;DHT22;65428;53.194;6.132;2022-12-07T15:37:15;4.20;94.40
76567;DHT22;65428;53.194;6.132;2022-12-07T15:39:41;4.30;94.50
76567;DHT22;65428;53.194;6.132;2022-12-07T15:42:07;4.20;94.40
76567;DHT22;65428;53.194;6.132;2022-12-07T15:44:33;4.20;94.30
76567;DHT22;65428;53.194;6.132;2022-12-07T15:47:17;4.20;94.20
76567;DHT22;65428;53.194;6.132;2022-12-07T15:49:42;4.20;94.40
76567;DHT22;65428;53.194;6.132;2022-12-07T15:52:08;4.50;94.40
76567;DHT22;65428;53.194;6.132;2022-12-07T15:54:34;4.20;94.00
76567;DHT22;65428;53.194;6.132;2022-12-07T15:57:00;4.20;94.10
76567;DHT22;65428;53.194;6.132;2022-12-07T15:59:27;4.10;93.80
76567;DHT22;65428;53.194;6.132;2022-12-07T16:01:54;4.10;94.10
76567;DHT22;65428;53.194;6.132;2022-12-07T16:04:20;4.20;94.30
76567;DHT22;65428;53.194;6.132;2022-12-07T16:06:45;4.20;94.20
76567;DHT22;65428;53.194;6.132;2022-12-07T16:09:11;4.10;94.30
76567;DHT22;65428;53.194;6.132;2022-12-07T16:11:37;4.20;94.40
76567;DHT22;65428;53.194;6.132;2022-12-07T16:14:03;4.20;94.40
76567;DHT22;65428;53.194;6.132;2022-12-07T16:16:28;4.20;94.50
76567;DHT22;65428;53.194;6.132;2022-12-07T16:18:54;4.30;94.40
76567;DHT22;65428;53.194;6.132;2022-12-07T16:21:20;4.20;94.50
76567;DHT22;65428;53.194;6.132;2022-12-07T16:23:46;4.10;94.50
76567;DHT22;65428;53.194;6.132;2022-12-07T16:26:17;4.20;94.30
76567;DHT22;65428;53.194;6.132;2022-12-07T16:28:43;4.20;94.30
76567;DHT22;65428;53.194;6.132;2022-12-07T16:31:12;4.20;94.20
76567;DHT22;65428;53.194;6.132;2022-12-07T16:33:39;4.20;94.20
76567;DHT22;65428;53.194;6.132;2022-12-07T16:36:06;4.10;94.30
76567;DHT22;65428;53.194;6.132;2022-12-07T16:38:32;4.10;94.10
76567;DHT22;65428;53.194;6.132;2022-12-07T16:40:58;4.10;94.40
76567;DHT22;65428;53.194;6.132;2022-12-07T16:43:24;4.10;94.30
76567;DHT22;65428;53.194;6.132;2022-12-07T16:45:49;4.10;94.50
76567;DHT22;65428;53.194;6.132;2022-12-07T16:48:16;4.10;94.50
76567;DHT22;65428;53.194;6.132;2022-12-07T16:50:43;4.10;94.70
76567;DHT22;65428;53.194;6.132;2022-12-07T16:53:10;4.10;94.50
76567;DHT22;65428;53.194;6.132;2022-12-07T16:55:40;4.10;94.60
76567;DHT22;65428;53.194;6.132;2022-12-07T16:58:06;4.10;94.90
76567;DHT22;65428;53.194;6.132;2022-12-07T17:00:33;4.10;94.70
76567;DHT22;65428;53.194;6.132;2022-12-07T17:02:59;4.10;94.60
76567;DHT22;65428;53.194;6.132;2022-12-07T17:05:25;4.10;94.60
76567;DHT22;65428;53.194;6.132;2022-12-07T17:07:53;4.10;94.60
76567;DHT22;65428;53.194;6.132;2022-12-07T17:10:19;4.00;94.70
76567;DHT22;65428;53.194;6.132;2022-12-07T17:12:45;4.00;94.40
76567;DHT22;65428;53.194;6.132;2022-12-07T17:15:10;3.90;94.50
76567;DHT22;65428;53.194;6.132;2022-12-07T17:17:53;4.00;94.80
76567;DHT22;65428;53.194;6.132;2022-12-07T17:20:20;4.00;94.70
76567;DHT22;65428;53.194;6.132;2022-12-07T17:22:46;3.80;94.70
76567;DHT22;65428;53.194;6.132;2022-12-07T17:25:12;4.00;95.10
76567;DHT22;65428;53.194;6.132;2022-12-07T17:27:38;3.70;94.80
76567;DHT22;65428;53.194;6.132;2022-12-07T17:30:05;3.60;94.90
76567;DHT22;65428;53.194;6.132;2022-12-07T17:32:31;3.60;95.40
76567;DHT22;65428;53.194;6.132;2022-12-07T17:34:57;3.60;95.60
76567;DHT22;65428;53.194;6.132;2022-12-07T17:37:23;3.90;95.80
76567;DHT22;65428;53.194;6.132;2022-12-07T17:39:49;3.70;95.80
76567;DHT22;65428;53.194;6.132;2022-12-07T17:42:15;3.70;95.80
76567;DHT22;65428;53.194;6.132;2022-12-07T17:44:59;3.70;95.60
76567;DHT22;65428;53.194;6.132;2022-12-07T17:47:25;3.70;95.60
76567;DHT22;65428;53.194;6.132;2022-12-07T17:49:50;3.70;95.70
76567;DHT22;65428;53.194;6.132;2022-12-07T17:52:17;3.60;95.60
76567;DHT22;65428;53.194;6.132;2022-12-07T17:55:01;3.50;95.40
76567;DHT22;65428;53.194;6.132;2022-12-07T17:57:29;3.60;95.60